createdAt,value
2023-02-28T00:00:45.014Z,6.45
2023-02-28T00:03:17.043Z,7.15
2023-02-28T00:05:48.876Z,6.78
2023-02-28T00:08:20.602Z,7.03
2023-02-28T00:10:52.298Z,6.30
2023-02-28T00:13:26.797Z,7.20
2023-02-28T00:16:08.293Z,7.32
2023-02-28T00:18:40.409Z,6.95
2023-02-28T00:21:12.216Z,6.75
2023-02-28T00:23:44.764Z,7.38
2023-02-28T00:26:21.587Z,6.97
2023-02-28T00:28:55.493Z,7.03
2023-02-28T00:31:28.788Z,7.60
2023-02-28T00:34:00.725Z,7.20
2023-02-28T00:36:32.744Z,7.63
2023-02-28T00:39:04.540Z,7.10
2023-02-28T00:41:36.282Z,6.95
2023-02-28T00:44:08.151Z,7.25
2023-02-28T00:46:40.965Z,6.95
2023-02-28T00:49:12.675Z,7.70
2023-02-28T00:51:51.135Z,7.20
2023-02-28T00:54:25.759Z,6.78
2023-02-28T00:56:59.989Z,6.97
2023-02-28T00:59:35.868Z,7.35
2023-02-28T01:02:11.640Z,7.38
2023-02-28T01:04:45.309Z,7.20
2023-02-28T01:07:17.113Z,6.93
2023-02-28T01:09:50.083Z,7.30
2023-02-28T01:12:21.796Z,6.97
2023-02-28T01:14:53.485Z,7.35
2023-02-28T01:17:27.485Z,7.63
2023-02-28T01:20:00.400Z,6.93
2023-02-28T01:22:39.678Z,7.78
2023-02-28T01:25:15.993Z,6.93
2023-02-28T01:27:47.791Z,7.20
2023-02-28T01:30:19.515Z,6.68
2023-02-28T01:32:54.528Z,7.43
2023-02-28T01:35:29.169Z,7.05
2023-02-28T01:38:12.333Z,7.40
2023-02-28T01:40:55.628Z,7.45
2023-02-28T01:46:21.531Z,7.40
2023-02-28T01:49:06.437Z,6.57
2023-02-28T01:51:56.029Z,7.00
2023-02-28T01:54:34.741Z,6.82
2023-02-28T01:57:17.646Z,7.82
2023-02-28T01:59:59.548Z,6.72
2023-02-28T02:02:33.250Z,7.63
2023-02-28T02:05:08.808Z,7.35
2023-02-28T02:07:44.853Z,6.78
2023-02-28T02:10:31.066Z,5.85
2023-02-28T02:13:36.542Z,6.97
2023-02-28T02:19:15.298Z,7.20
2023-02-28T02:22:21.315Z,6.35
2023-02-28T02:25:23.855Z,6.78
2023-02-28T02:28:23.265Z,7.00
2023-02-28T02:31:14.996Z,7.43
2023-02-28T02:34:06.757Z,6.18
2023-02-28T02:36:41.644Z,6.80
2023-02-28T02:39:49.690Z,6.05
2023-02-28T02:42:54.472Z,5.40
2023-02-28T02:45:32.815Z,5.68
2023-02-28T02:48:11.266Z,6.47
2023-02-28T02:51:23.112Z,5.50
2023-02-28T02:54:29.584Z,6.45
2023-02-28T02:57:06.846Z,4.75
2023-02-28T02:59:41.793Z,5.97
2023-02-28T03:02:17.205Z,5.93
2023-02-28T03:05:01.572Z,6.20
2023-02-28T03:07:36.522Z,6.40
2023-02-28T03:13:36.429Z,5.88
2023-02-28T03:16:38.633Z,6.10
2023-02-28T03:19:22.938Z,6.25
2023-02-28T03:22:17.349Z,6.00
2023-02-28T03:24:49.268Z,6.35
2023-02-28T03:27:37.796Z,6.03
2023-02-28T03:30:34.313Z,6.82
2023-02-28T03:33:15.735Z,6.20
2023-02-28T03:36:11.242Z,6.25
2023-02-28T03:38:50.285Z,6.50
2023-02-28T03:41:40.026Z,6.10
2023-02-28T03:44:19.533Z,6.72
2023-02-28T03:46:59.619Z,5.68
2023-02-28T03:49:59.470Z,5.57
2023-02-28T03:52:40.239Z,5.75
2023-02-28T03:55:15.674Z,6.78
2023-02-28T03:58:02.521Z,5.55
2023-02-28T04:00:44.761Z,6.28
2023-02-28T04:03:16.992Z,5.75
2023-02-28T04:05:53.237Z,6.65
2023-02-28T04:08:25.105Z,6.38
2023-02-28T04:11:18.500Z,6.75
2023-02-28T04:13:53.564Z,7.22
2023-02-28T04:19:09.100Z,6.45
2023-02-28T04:21:46.391Z,7.03
2023-02-28T04:24:25.772Z,6.57
2023-02-28T04:26:59.956Z,6.75
2023-02-28T04:29:45.592Z,6.90
2023-02-28T04:32:18.946Z,6.68
2023-02-28T04:34:56.765Z,6.78
2023-02-28T04:37:29.854Z,6.88
2023-02-28T04:40:05.136Z,7.18
2023-02-28T04:42:36.899Z,7.30
2023-02-28T04:45:12.327Z,7.82
2023-02-28T04:47:44.057Z,5.35
2023-02-28T04:50:16.217Z,6.97
2023-02-28T04:52:50.801Z,6.57
2023-02-28T04:55:24.480Z,6.63
2023-02-28T04:57:56.173Z,6.75
2023-02-28T05:00:27.921Z,6.93
2023-02-28T05:02:59.615Z,7.10
2023-02-28T05:05:34.537Z,7.18
2023-02-28T05:10:50.513Z,6.82
2023-02-28T05:13:22.157Z,6.60
2023-02-28T05:15:54.991Z,7.20
2023-02-28T05:18:26.653Z,7.80
2023-02-28T05:20:58.382Z,7.32
2023-02-28T05:23:33.380Z,7.03
2023-02-28T05:26:05.349Z,7.30
2023-02-28T05:28:37.322Z,7.00
2023-02-28T05:31:28.725Z,7.03
2023-02-28T05:34:07.546Z,7.03
2023-02-28T05:36:42.728Z,6.80
2023-02-28T05:39:14.576Z,7.32
2023-02-28T05:41:46.303Z,7.85
2023-02-28T05:44:18.061Z,7.60
2023-02-28T05:46:49.786Z,7.35
2023-02-28T05:49:24.204Z,7.80
2023-02-28T05:51:55.996Z,6.80
2023-02-28T05:54:27.648Z,7.78
2023-02-28T05:56:59.468Z,6.50
2023-02-28T05:59:32.264Z,7.20
2023-02-28T06:02:04.372Z,6.40
2023-02-28T06:04:36.098Z,5.30
2023-02-28T06:07:12.758Z,7.85
2023-02-28T06:09:44.493Z,6.68
2023-02-28T06:12:16.242Z,6.97
2023-02-28T06:14:47.939Z,7.38
2023-02-28T06:17:19.647Z,7.38
2023-02-28T06:19:52.521Z,7.13
2023-02-28T06:22:24.279Z,7.50
2023-02-28T06:24:56.043Z,6.35
2023-02-28T06:27:27.765Z,7.32
2023-02-28T06:29:59.498Z,8.18
2023-02-28T06:32:34.269Z,7.00
2023-02-28T06:37:39.085Z,6.97
2023-02-28T06:40:14.061Z,7.28
2023-02-28T06:42:46.110Z,7.28
2023-02-28T06:45:18.220Z,7.40
2023-02-28T06:47:53.250Z,6.97
2023-02-28T06:50:28.640Z,7.00
2023-02-28T06:53:00.388Z,7.40
2023-02-28T06:55:32.437Z,7.43
2023-02-28T06:58:14.592Z,7.30
2023-02-28T07:00:53.742Z,7.90
2023-02-28T07:03:28.316Z,7.93
2023-02-28T07:06:00.200Z,6.80
2023-02-28T07:08:33.333Z,7.55
2023-02-28T07:11:05.582Z,7.28
2023-02-28T07:13:43.156Z,6.70
2023-02-28T07:16:14.911Z,6.97
2023-02-28T07:18:46.992Z,6.93
2023-02-28T07:21:25.778Z,7.43
2023-02-28T07:24:00.421Z,7.20
2023-02-28T07:26:35.518Z,6.80
2023-02-28T07:29:09.647Z,6.95
2023-02-28T07:31:41.432Z,7.30
2023-02-28T07:34:14.212Z,8.07
2023-02-28T07:36:49.061Z,7.18
2023-02-28T07:39:26.968Z,6.80
2023-02-28T07:42:06.039Z,7.00
2023-02-28T07:44:41.748Z,7.38
2023-02-28T07:47:13.448Z,7.95
2023-02-28T07:49:46.351Z,7.78
2023-02-28T07:52:18.152Z,7.05
2023-02-28T07:54:51.530Z,7.78
2023-02-28T07:57:29.110Z,7.55
2023-02-28T08:00:06.286Z,8.15
2023-02-28T08:02:52.306Z,8.23
2023-02-28T08:05:26.178Z,7.75
2023-02-28T08:07:58.240Z,8.40
2023-02-28T08:10:30.008Z,7.93
2023-02-28T08:13:01.731Z,7.45
2023-02-28T08:18:30.818Z,8.02
2023-02-28T08:21:10.941Z,7.93
2023-02-28T08:23:42.860Z,7.15
2023-02-28T08:26:14.985Z,7.60
2023-02-28T08:28:49.191Z,8.20
2023-02-28T08:31:21.044Z,7.93
2023-02-28T08:33:54.340Z,8.23
2023-02-28T08:36:27.714Z,7.68
2023-02-28T08:39:00.653Z,8.32
2023-02-28T08:41:33.029Z,7.22
2023-02-28T08:44:04.939Z,8.25
2023-02-28T08:49:33.220Z,7.28
2023-02-28T08:52:05.001Z,7.35
2023-02-28T08:54:37.245Z,7.47
2023-02-28T08:57:09.080Z,7.95
2023-02-28T08:59:40.783Z,7.20
2023-02-28T09:02:21.558Z,7.82
2023-02-28T09:04:54.522Z,7.80
2023-02-28T09:07:29.432Z,8.30
2023-02-28T09:10:05.622Z,7.72
2023-02-28T09:12:37.501Z,8.20
2023-02-28T09:15:10.992Z,7.35
2023-02-28T09:17:44.419Z,7.03
2023-02-28T09:20:17.679Z,6.95
2023-02-28T09:22:49.697Z,6.80
2023-02-28T09:25:24.384Z,5.97
2023-02-28T09:27:58.465Z,7.15
2023-02-28T09:30:31.315Z,7.28
2023-02-28T09:35:39.508Z,6.38
2023-02-28T09:38:12.406Z,6.93
2023-02-28T09:41:14.064Z,6.68
2023-02-28T09:43:57.891Z,6.22
2023-02-28T09:46:45.095Z,6.43
2023-02-28T09:49:27.063Z,7.90
2023-02-28T09:52:10.815Z,7.68
2023-02-28T09:54:43.227Z,8.68
2023-02-28T09:57:30.884Z,7.60
2023-02-28T10:00:17.464Z,6.93
2023-02-28T10:03:28.851Z,8.00
2023-02-28T10:06:13.252Z,7.82
2023-02-28T10:09:10.293Z,7.57
2023-02-28T10:11:49.766Z,7.75
2023-02-28T10:14:27.280Z,7.53
2023-02-28T10:17:26.169Z,7.43
2023-02-28T10:20:08.858Z,7.88
2023-02-28T10:23:08.571Z,8.23
2023-02-28T10:25:41.074Z,7.43
2023-02-28T10:28:19.596Z,8.10
2023-02-28T10:30:58.024Z,8.93
2023-02-28T10:33:36.306Z,7.75
2023-02-28T10:36:15.655Z,7.60
2023-02-28T10:38:48.949Z,7.78
2023-02-28T10:41:37.327Z,8.43
2023-02-28T10:44:23.099Z,9.20
2023-02-28T10:46:57.720Z,7.68
2023-02-28T10:49:31.536Z,8.15
2023-02-28T10:52:03.273Z,7.63
2023-02-28T10:54:38.842Z,8.15
2023-02-28T10:57:29.488Z,8.57
2023-02-28T11:00:32.974Z,7.78
2023-02-28T11:03:35.017Z,8.30
2023-02-28T11:06:16.224Z,8.05
2023-02-28T11:08:52.106Z,8.15
2023-02-28T11:14:06.973Z,7.63
2023-02-28T11:17:31.744Z,10.48
2023-02-28T11:20:08.242Z,7.90
2023-02-28T11:22:46.251Z,7.90
2023-02-28T11:25:25.132Z,7.93
2023-02-28T11:28:13.090Z,11.45
2023-02-28T11:31:00.429Z,10.93
2023-02-28T11:33:51.859Z,7.78
2023-02-28T11:36:30.291Z,10.18
2023-02-28T11:39:14.122Z,9.05
2023-02-28T11:42:16.436Z,7.88
2023-02-28T11:45:16.212Z,9.85
2023-02-28T11:48:24.239Z,8.07
2023-02-28T11:51:39.634Z,8.48
2023-02-28T11:54:20.120Z,8.40
2023-02-28T11:57:01.143Z,7.90
2023-02-28T11:59:50.959Z,8.93
2023-02-28T12:02:50.678Z,8.70
2023-02-28T12:06:09.849Z,8.25
2023-02-28T12:09:12.002Z,8.20
2023-02-28T12:12:29.378Z,8.93
2023-02-28T12:15:37.224Z,8.13
2023-02-28T12:18:23.975Z,8.82
2023-02-28T12:21:12.533Z,8.43
2023-02-28T12:24:15.147Z,8.32
2023-02-28T12:26:50.369Z,8.70
2023-02-28T12:29:33.431Z,8.70
2023-02-28T12:32:10.831Z,8.82
2023-02-28T12:34:48.785Z,9.10
2023-02-28T12:37:32.809Z,8.98
2023-02-28T12:40:12.113Z,9.57
2023-02-28T12:42:51.002Z,9.07
2023-02-28T12:45:22.699Z,9.07
2023-02-28T12:48:03.970Z,8.63
2023-02-28T12:50:37.163Z,9.80
2023-02-28T12:53:21.115Z,8.88
2023-02-28T12:56:16.104Z,9.13
2023-02-28T12:59:06.094Z,9.10
2023-02-28T13:02:02.964Z,8.38
2023-02-28T13:05:10.938Z,9.18
2023-02-28T13:08:13.412Z,8.60
2023-02-28T13:11:02.243Z,8.93
2023-02-28T13:13:38.702Z,8.00
2023-02-28T13:16:11.622Z,8.90
2023-02-28T13:18:48.143Z,9.88
2023-02-28T13:21:29.484Z,10.70
2023-02-28T13:24:12.905Z,9.40
2023-02-28T13:26:53.172Z,7.97
2023-02-28T13:29:42.978Z,8.85
2023-02-28T13:32:31.305Z,8.15
2023-02-28T13:35:05.964Z,8.95
2023-02-28T13:37:44.077Z,8.63
2023-02-28T13:40:38.802Z,9.18
2023-02-28T13:43:10.664Z,8.90
2023-02-28T13:46:21.985Z,8.23
2023-02-28T13:48:54.133Z,8.95
2023-02-28T13:51:57.915Z,8.52
2023-02-28T13:55:00.859Z,9.90
2023-02-28T13:58:03.054Z,9.10
2023-02-28T14:01:00.989Z,9.38
2023-02-28T14:03:59.688Z,9.00
2023-02-28T14:06:34.429Z,9.43
2023-02-28T14:09:27.163Z,10.00
2023-02-28T14:12:37.464Z,9.82
2023-02-28T14:15:34.836Z,9.00
2023-02-28T14:18:14.804Z,9.38
2023-02-28T14:20:48.818Z,9.65
2023-02-28T14:23:23.187Z,8.98
2023-02-28T14:26:23.481Z,9.05
2023-02-28T14:29:19.730Z,9.27
2023-02-28T14:32:07.033Z,8.75
2023-02-28T14:37:37.468Z,8.73
2023-02-28T14:40:30.170Z,8.88
2023-02-28T14:43:05.104Z,9.38
2023-02-28T14:45:38.438Z,9.10
2023-02-28T14:48:13.781Z,9.48
2023-02-28T14:50:52.094Z,9.45
2023-02-28T14:53:28.554Z,10.75
2023-02-28T14:56:03.326Z,9.55
2023-02-28T15:01:07.825Z,8.65
2023-02-28T15:04:07.220Z,10.02
2023-02-28T15:06:38.939Z,9.02
2023-02-28T15:09:17.976Z,8.63
2023-02-28T15:11:51.247Z,10.15
2023-02-28T15:14:26.299Z,9.32
2023-02-28T15:17:03.427Z,9.52
2023-02-28T15:19:41.413Z,9.32
2023-02-28T15:22:19.071Z,9.85
2023-02-28T15:24:54.747Z,10.18
2023-02-28T15:27:32.124Z,8.90
2023-02-28T15:30:35.111Z,9.68
2023-02-28T15:33:13.025Z,10.02
2023-02-28T15:35:45.490Z,9.43
2023-02-28T15:38:26.198Z,10.38
2023-02-28T15:41:01.811Z,10.25
2023-02-28T15:43:38.521Z,10.05
2023-02-28T15:46:16.820Z,10.88
2023-02-28T15:48:58.391Z,9.70
2023-02-28T15:51:40.779Z,10.25
2023-02-28T15:54:20.107Z,10.40
2023-02-28T15:56:54.897Z,10.13
2023-02-28T15:59:31.213Z,10.13
2023-02-28T16:02:22.374Z,10.50
2023-02-28T16:05:19.047Z,9.98
2023-02-28T16:07:50.698Z,10.18
2023-02-28T16:10:26.941Z,10.80
2023-02-28T16:12:58.900Z,10.73
2023-02-28T16:15:36.358Z,9.95
2023-02-28T16:18:11.274Z,9.50
2023-02-28T16:20:45.466Z,9.73
2023-02-28T16:23:17.210Z,9.48
2023-02-28T16:25:53.253Z,9.57
2023-02-28T16:28:33.719Z,9.30
2023-02-28T16:31:08.452Z,8.95
2023-02-28T16:33:41.083Z,9.57
2023-02-28T16:36:22.781Z,10.50
2023-02-28T16:38:55.957Z,10.13
2023-02-28T16:41:29.449Z,9.95
2023-02-28T16:44:04.958Z,9.98
2023-02-28T16:46:37.310Z,10.15
2023-02-28T16:49:13.891Z,11.40
2023-02-28T16:51:48.572Z,9.98
2023-02-28T16:54:20.694Z,9.75
2023-02-28T16:56:57.323Z,9.70
2023-02-28T16:59:33.109Z,10.40
2023-02-28T17:02:16.105Z,10.10
2023-02-28T17:04:48.220Z,10.05
2023-02-28T17:07:21.351Z,10.00
2023-02-28T17:09:57.545Z,9.75
2023-02-28T17:12:29.315Z,9.25
2023-02-28T17:15:04.640Z,9.95
2023-02-28T17:17:39.027Z,10.05
2023-02-28T17:20:25.432Z,10.55
2023-02-28T17:22:57.498Z,9.93
2023-02-28T17:25:29.240Z,10.50
2023-02-28T17:28:03.721Z,10.38
2023-02-28T17:30:36.206Z,10.30
2023-02-28T17:33:08.065Z,10.43
2023-02-28T17:35:40.222Z,11.75
2023-02-28T17:38:23.259Z,11.05
2023-02-28T17:40:58.223Z,10.98
2023-02-28T17:43:30.097Z,10.70
2023-02-28T17:46:02.405Z,11.18
2023-02-28T17:48:36.961Z,12.30
2023-02-28T17:51:12.649Z,13.55
2023-02-28T17:53:44.982Z,13.65
2023-02-28T17:56:26.987Z,13.50
2023-02-28T17:59:09.101Z,13.77
2023-02-28T18:01:41.118Z,13.07
2023-02-28T18:04:16.931Z,13.00
2023-02-28T18:06:54.900Z,13.70
2023-02-28T18:09:28.052Z,13.75
2023-02-28T18:12:03.076Z,13.25
2023-02-28T18:14:40.659Z,13.32
2023-02-28T18:17:25.606Z,13.73
2023-02-28T18:20:16.489Z,13.65
2023-02-28T18:22:56.838Z,13.32
2023-02-28T18:26:00.666Z,15.50
2023-02-28T18:28:35.342Z,14.82
2023-02-28T18:31:25.349Z,14.88
2023-02-28T18:34:15.929Z,15.20
2023-02-28T18:36:54.901Z,14.75
2023-02-28T18:39:30.389Z,14.80
2023-02-28T18:42:02.098Z,14.20
2023-02-28T18:44:33.845Z,14.90
2023-02-28T18:47:11.664Z,15.18
2023-02-28T18:50:26.051Z,15.65
2023-02-28T18:53:06.037Z,14.80
2023-02-28T18:55:42.357Z,14.35
2023-02-28T18:58:18.077Z,14.63
2023-02-28T19:00:55.208Z,14.88
2023-02-28T19:03:35.762Z,15.38
2023-02-28T19:06:09.837Z,15.23
2023-02-28T19:08:56.321Z,14.57
2023-02-28T19:11:47.254Z,14.98
2023-02-28T19:14:24.828Z,14.38
2023-02-28T19:17:09.089Z,14.57
2023-02-28T19:20:22.046Z,14.25
2023-02-28T19:23:15.420Z,15.38
2023-02-28T19:29:02.621Z,15.63
2023-02-28T19:31:34.789Z,16.60
2023-02-28T19:34:07.292Z,16.67
2023-02-28T19:36:39.075Z,16.80
2023-02-28T19:39:11.652Z,16.05
2023-02-28T19:41:43.662Z,15.95
2023-02-28T19:44:15.472Z,15.50
2023-02-28T19:46:47.384Z,16.25
2023-02-28T19:49:19.172Z,17.38
2023-02-28T19:51:50.947Z,17.30
2023-02-28T19:54:23.613Z,17.13
2023-02-28T19:56:57.612Z,17.88
2023-02-28T19:59:38.186Z,19.58
2023-02-28T20:02:20.720Z,19.02
2023-02-28T20:04:54.333Z,18.83
2023-02-28T20:07:32.519Z,18.20
2023-02-28T20:10:05.103Z,20.25
2023-02-28T20:12:40.183Z,18.30
2023-02-28T20:15:12.605Z,18.52
2023-02-28T20:17:49.433Z,18.20
2023-02-28T20:20:23.221Z,18.58
2023-02-28T20:22:57.239Z,19.98
2023-02-28T20:25:33.364Z,19.40
2023-02-28T20:30:39.480Z,19.92
2023-02-28T20:33:11.591Z,21.42
2023-02-28T20:35:43.912Z,20.25
2023-02-28T20:38:21.556Z,21.13
2023-02-28T20:40:59.279Z,18.55
2023-02-28T20:43:58.242Z,20.02
2023-02-28T20:46:31.561Z,18.25
2023-02-28T20:49:04.901Z,18.13
2023-02-28T20:51:40.253Z,17.77
2023-02-28T20:54:12.093Z,18.02
2023-02-28T20:56:44.242Z,18.17
2023-02-28T20:59:20.958Z,18.42
2023-02-28T21:01:54.108Z,18.50
2023-02-28T21:04:25.889Z,17.52
2023-02-28T21:07:05.502Z,17.05
2023-02-28T21:09:45.994Z,18.08
2023-02-28T21:12:18.591Z,17.33
2023-02-28T21:14:52.931Z,17.23
2023-02-28T21:17:25.025Z,18.98
2023-02-28T21:19:56.739Z,18.75
2023-02-28T21:22:34.825Z,18.73
2023-02-28T21:25:07.232Z,19.45
2023-02-28T21:27:39.002Z,19.27
2023-02-28T21:30:12.276Z,21.02
2023-02-28T21:32:46.731Z,21.27
2023-02-28T21:35:18.575Z,20.52
2023-02-28T21:37:50.632Z,20.38
2023-02-28T21:40:25.460Z,17.88
2023-02-28T21:45:29.293Z,17.70
2023-02-28T21:48:01.888Z,19.92
2023-02-28T21:50:33.880Z,20.15
2023-02-28T21:53:08.306Z,18.95
2023-02-28T21:55:40.379Z,20.23
2023-02-28T22:00:46.640Z,19.67
2023-02-28T22:03:21.408Z,20.25
2023-02-28T22:05:54.368Z,20.20
2023-02-28T22:08:26.486Z,19.60
2023-02-28T22:11:02.889Z,19.50
2023-02-28T22:13:35.278Z,20.45
2023-02-28T22:16:12.548Z,21.58
2023-02-28T22:18:45.320Z,20.00
2023-02-28T22:21:23.646Z,19.77
2023-02-28T22:23:55.357Z,20.65
2023-02-28T22:26:27.151Z,20.00
2023-02-28T22:28:58.915Z,21.70
2023-02-28T22:31:33.134Z,22.48
2023-02-28T22:34:12.386Z,22.75
2023-02-28T22:36:44.407Z,23.27
2023-02-28T22:39:18.460Z,22.52
2023-02-28T22:41:50.120Z,22.30
2023-02-28T22:44:23.028Z,22.40
2023-02-28T22:46:55.161Z,22.85
2023-02-28T22:49:27.234Z,22.33
2023-02-28T22:51:59.466Z,22.75
2023-02-28T22:54:39.902Z,23.38
2023-02-28T22:57:12.568Z,21.15
2023-02-28T22:59:44.747Z,23.50
2023-02-28T23:02:16.959Z,23.55
2023-02-28T23:04:48.709Z,22.73
2023-02-28T23:07:22.475Z,23.08
2023-02-28T23:09:54.797Z,23.02
2023-02-28T23:12:27.252Z,24.63
2023-02-28T23:15:00.849Z,22.75
2023-02-28T23:17:35.561Z,21.83
2023-02-28T23:20:07.752Z,22.83
2023-02-28T23:22:46.511Z,23.17
2023-02-28T23:25:23.959Z,22.65
2023-02-28T23:27:55.930Z,23.23
2023-02-28T23:30:28.102Z,23.25
2023-02-28T23:33:03.003Z,23.45
2023-02-28T23:35:37.375Z,22.77
2023-02-28T23:38:12.162Z,22.90
2023-02-28T23:43:15.367Z,23.05
2023-02-28T23:45:55.663Z,22.40
2023-02-28T23:48:33.668Z,23.88
2023-02-28T23:51:16.681Z,23.77
2023-02-28T23:53:52.518Z,20.88
2023-02-28T23:56:25.571Z,22.15
2023-02-28T23:58:58.047Z,22.65
